Time;durP1;ratioP1;P1;durP2;ratioP2;P2;SDS_P1;SDS_P2;PMS_P1;PMS_P2;Temp;Humidity;BMP_temperature;BMP_pressure;BME280_temperature;BME280_humidity;BME280_pressure;Samples;Min_cycle;Max_cycle;Signal;HPM_P1;HPM_P2
2021/12/08 00:04:18;;;;;;;2.63;2.10;;;;;;;15.42;50.15;94264.84;10671652;27;20057;-76
2021/12/08 00:09:28;;;;;;;2.72;2.17;;;;;;;15.41;50.20;94247.69;10652794;27;20047;-81
2021/12/08 00:14:29;;;;;;;2.72;2.30;;;;;;;15.41;50.72;94234.69;10653049;27;20043;-75
2021/12/08 00:19:31;;;;;;;2.22;2.03;;;;;;;15.41;50.60;94239.09;10670885;27;20050;-88
2021/12/08 00:24:33;;;;;;;2.20;2.00;;;;;;;15.39;50.36;94226.31;10670663;27;20050;-77
2021/12/08 00:29:35;;;;;;;3.22;2.15;;;;;;;15.40;50.29;94201.13;10651424;27;20058;-78
2021/12/08 00:34:38;;;;;;;2.20;2.00;;;;;;;15.38;49.91;94193.56;10667764;27;20517;-76
2021/12/08 00:39:39;;;;;;;2.22;2.00;;;;;;;15.37;50.14;94175.59;10637082;27;20034;-88
2021/12/08 00:44:41;;;;;;;2.63;2.15;;;;;;;15.37;50.00;94186.78;10669482;27;20034;-83
2021/12/08 00:49:45;;;;;;;2.25;2.05;;;;;;;15.36;50.26;94174.00;10666388;27;20467;-86
2021/12/08 00:54:46;;;;;;;2.03;1.83;;;;;;;15.35;49.76;94173.22;10664410;27;20099;-81
2021/12/08 00:59:48;;;;;;;2.53;2.08;;;;;;;15.35;50.34;94165.44;10650540;27;20049;-87
2021/12/08 01:05:00;;;;;;;2.42;1.95;;;;;;;15.34;50.24;94171.63;10651496;27;20041;-88
2021/12/08 01:10:10;;;;;;;3.08;2.08;;;;;;;15.34;50.34;94176.06;10667875;27;20053;-80
2021/12/08 01:15:32;;;;;;;2.50;1.90;;;;;;;15.33;50.42;94161.47;10625725;27;20092;-77
2021/12/08 01:20:35;;;;;;;2.17;1.95;;;;;;;15.32;50.14;94152.88;10642693;27;20034;-90
2021/12/08 01:25:37;;;;;;;1.85;1.70;;;;;;;15.31;49.92;94166.91;10667438;27;20049;-91
2021/12/08 01:30:39;;;;;;;2.13;1.75;;;;;;;15.31;49.91;94166.91;10666773;27;20047;-80
2021/12/08 01:35:41;;;;;;;1.83;1.70;;;;;;;15.32;50.21;94170.28;10667188;27;20049;-78
2021/12/08 01:40:43;;;;;;;2.13;1.73;;;;;;;15.30;49.82;94154.91;10667697;27;20133;-90
2021/12/08 01:45:57;;;;;;;3.67;1.80;;;;;;;15.29;50.21;94145.56;10666700;27;20043;-78
2021/12/08 01:51:03;;;;;;;1.88;1.77;;;;;;;15.29;50.00;94142.16;10666500;27;20038;-82
2021/12/08 01:56:06;;;;;;;1.73;1.60;;;;;;;15.29;50.23;94135.16;10666603;27;20030;-80
2021/12/08 02:01:11;;;;;;;1.95;1.80;;;;;;;15.29;50.22;94137.75;10666358;27;20045;-83
2021/12/08 02:06:15;;;;;;;1.73;1.63;;;;;;;15.29;50.63;94131.75;10631942;27;20087;-91
2021/12/08 02:11:19;;;;;;;2.00;1.80;;;;;;;15.28;50.47;94130.19;10666607;27;20046;-87
2021/12/08 02:16:21;;;;;;;1.77;1.67;;;;;;;15.28;50.51;94117.97;10621981;27;20047;-78
2021/12/08 02:21:33;;;;;;;2.15;1.85;;;;;;;15.27;50.06;94113.81;10665955;27;20079;-75
2021/12/08 02:26:35;;;;;;;1.63;1.52;;;;;;;15.27;50.35;94124.22;10666152;27;20043;-91
2021/12/08 02:31:49;;;;;;;2.05;1.80;;;;;;;15.27;50.08;94120.81;10618322;27;20051;-92
2021/12/08 02:47:52;;;;;;;1.77;1.60;;;;;;;15.24;50.38;94122.06;10663444;27;20057;-90
2021/12/08 02:52:54;;;;;;;1.50;1.40;;;;;;;15.23;50.23;94128.28;10665675;27;20412;-80
2021/12/08 02:58:00;;;;;;;2.55;1.50;;;;;;;15.23;50.12;94120.50;10664580;27;20038;-88
2021/12/08 03:03:03;;;;;;;2.63;1.73;;;;;;;15.23;50.30;94131.66;10646798;27;20039;-80
2021/12/08 03:08:06;;;;;;;1.52;1.42;;;;;;;15.23;50.49;94125.69;10664868;27;20138;-76
2021/12/08 03:13:09;;;;;;;1.95;1.42;;;;;;;15.23;50.30;94105.69;10628393;27;20049;-77
2021/12/08 03:18:10;;;;;;;1.60;1.50;;;;;;;15.22;50.33;94114.50;10664933;27;20034;-75
2021/12/08 03:23:18;;;;;;;1.63;1.50;;;;;;;15.23;50.54;94107.50;10665035;27;20043;-79
2021/12/08 03:28:24;;;;;;;1.60;1.50;;;;;;;15.23;50.63;94108.28;10636981;27;20042;-85
2021/12/08 03:33:26;;;;;;;3.63;1.50;;;;;;;15.23;50.68;94103.06;10650473;27;20050;-78
2021/12/08 03:38:28;;;;;;;1.77;1.33;;;;;;;15.23;50.44;94110.09;10672041;27;20468;-86
2021/12/08 03:43:30;;;;;;;1.73;1.45;;;;;;;15.24;50.56;94115.06;10672062;27;20099;-88
2021/12/08 03:48:43;;;;;;;1.40;1.30;;;;;;;15.23;50.85;94103.06;10671366;27;20095;-81
2021/12/08 03:53:46;;;;;;;3.10;1.40;;;;;;;15.23;50.60;94095.28;10670723;27;20048;-81
2021/12/08 03:58:47;;;;;;;1.30;1.20;;;;;;;15.24;50.91;94102.06;10671277;27;20046;-78
2021/12/08 04:03:51;;;;;;;4.32;1.50;;;;;;;15.25;50.66;94095.03;10670575;27;20088;-84
2021/12/08 04:08:56;;;;;;;1.52;1.25;;;;;;;15.25;50.89;94097.66;10668918;27;20051;-75
2021/12/08 04:14:03;;;;;;;3.30;1.50;;;;;;;15.24;50.96;94112.47;10670452;27;20066;-81
2021/12/08 04:19:05;;;;;;;2.00;1.38;;;;;;;15.26;51.03;94127.03;10651805;27;20035;-92
2021/12/08 04:24:09;;;;;;;1.80;1.40;;;;;;;15.25;50.46;94139.22;10669921;27;20476;-88
2021/12/08 04:29:14;;;;;;;6.82;1.33;;;;;;;15.24;50.70;94133.25;10669400;27;20046;-79
2021/12/08 04:34:23;;;;;;;1.50;1.40;;;;;;;15.25;50.71;94128.84;10663217;27;20046;-81
2021/12/08 04:45:08;;;;;;;1.88;1.52;;;;;;;15.24;50.56;94133.25;10668498;27;20034;-75
2021/12/08 05:01:27;;;;;;;2.13;1.20;;;;;;;15.25;50.47;94160.03;10668730;27;20035;-92
2021/12/08 05:11:43;;;;;;;4.30;1.25;;;;;;;15.24;50.48;94143.66;10668454;27;20113;-79
2021/12/08 05:16:48;;;;;;;0.95;0.95;;;;;;;15.24;50.59;94154.06;10667641;27;20366;-81
2021/12/08 05:21:55;;;;;;;5.38;1.23;;;;;;;15.24;50.44;94155.88;10638798;27;20501;-79
2021/12/08 05:27:04;;;;;;;3.00;1.05;;;;;;;15.24;50.32;94146.25;10628258;27;20047;-84
2021/12/08 05:32:06;;;;;;;1.23;1.13;;;;;;;15.26;50.48;94166.81;10667147;27;20142;-88
2021/12/08 05:37:10;;;;;;;2.45;1.20;;;;;;;15.26;50.46;94181.63;10610501;27;20393;-89
2021/12/08 05:42:18;;;;;;;3.88;2.10;;;;;;;15.25;50.24;94175.63;10661750;27;20038;-89
2021/12/08 05:47:24;;;;;;;3.10;1.45;;;;;;;15.25;50.26;94165.22;10648129;27;20111;-89
2021/12/08 05:52:26;;;;;;;4.70;1.30;;;;;;;15.24;50.33;94174.84;10666055;27;20080;-91
2021/12/08 05:57:37;;;;;;;3.03;1.30;;;;;;;15.26;50.64;94171.22;10666205;27;20030;-83
2021/12/08 06:02:40;;;;;;;2.08;1.30;;;;;;;15.27;50.32;94172.78;10666060;27;20057;-91
2021/12/08 06:07:43;;;;;;;1.17;1.08;;;;;;;15.25;50.45;94165.22;10679670;27;20043;-75
2021/12/08 06:12:46;;;;;;;3.33;1.23;;;;;;;15.27;50.77;94171.00;10665161;27;20042;-81
2021/12/08 06:17:48;;;;;;;5.53;1.20;;;;;;;15.28;51.05;94162.16;10664971;27;20054;-85
2021/12/08 06:22:54;;;;;;;4.85;1.23;;;;;;;15.28;50.42;94159.56;10665236;27;20050;-90
2021/12/08 06:27:56;;;;;;;1.30;1.20;;;;;;;15.28;50.58;94156.97;10635272;27;20043;-90
2021/12/08 06:32:58;;;;;;;1.30;1.10;;;;;;;15.29;50.35;94170.75;10665331;27;20038;-90
2021/12/08 06:38:00;;;;;;;2.95;0.98;;;;;;;15.29;50.34;94158.56;10644959;27;20500;-87
2021/12/08 06:43:05;;;;;;;11.27;1.77;;;;;;;15.30;50.78;94159.34;10663328;27;20103;-78
2021/12/08 06:48:13;;;;;;;9.40;1.98;;;;;;;15.33;51.32;94157.06;10663530;27;20069;-77
2021/12/08 06:53:15;;;;;;;19.23;2.55;;;;;;;15.35;53.07;94139.44;10645128;27;20087;-80
2021/12/08 06:58:22;;;;;;;6.82;2.08;;;;;;;15.36;52.45;94133.19;10629072;27;20099;-78
2021/12/08 07:03:33;;;;;;;14.90;2.53;;;;;;;15.45;51.38;94138.81;10658420;27;20066;-79
2021/12/08 07:08:44;;;;;;;32.00;2.15;;;;;;;15.58;51.48;94138.50;10660950;27;20547;-86
2021/12/08 07:13:48;;;;;;;17.50;2.13;;;;;;;15.69;51.40;94147.25;10652903;27;20043;-80
2021/12/08 07:19:21;;;;;;;13.98;2.03;;;;;;;15.84;50.86;94158.97;10655133;27;20062;-85
2021/12/08 07:24:36;;;;;;;8.57;1.65;;;;;;;15.95;50.55;94166.72;10668054;27;20062;-89
2021/12/08 07:29:41;;;;;;;12.80;1.98;;;;;;;16.06;50.57;94162.44;10665405;27;20047;-91
2021/12/08 07:34:43;;;;;;;9.77;1.88;;;;;;;16.16;50.00;94153.19;10668717;27;20110;-86
2021/12/08 07:40:03;;;;;;;7.47;1.60;;;;;;;16.24;47.88;94148.38;10668829;27;20034;-83
2021/12/08 07:45:12;;;;;;;3.22;1.40;;;;;;;16.32;49.69;94152.38;10667206;27;20042;-78
2021/12/08 07:50:25;;;;;;;3.63;1.38;;;;;;;16.40;48.80;94136.38;10665690;27;20070;-81
2021/12/08 07:55:34;;;;;;;6.25;1.63;;;;;;;16.47;47.71;94138.78;10663920;27;20038;-78
2021/12/08 08:00:41;;;;;;;4.72;1.48;;;;;;;16.53;48.37;94139.63;10643224;27;20498;-83
2021/12/08 08:05:44;;;;;;;5.63;1.63;;;;;;;16.57;49.09;94128.50;10663004;27;20038;-79
2021/12/08 08:10:59;;;;;;;5.05;1.40;;;;;;;16.62;48.15;94123.38;10666901;27;20117;-79
2021/12/08 08:16:10;;;;;;;5.97;1.52;;;;;;;16.66;48.30;94124.44;10646918;27;20038;-81
2021/12/08 08:21:17;;;;;;;2.10;1.20;;;;;;;16.70;47.51;94103.91;10667382;27;20043;-77
2021/12/08 08:26:19;;;;;;;3.60;1.17;;;;;;;16.74;47.30;94086.75;10661714;27;20460;-78
2021/12/08 08:31:29;;;;;;;4.10;1.77;;;;;;;16.78;46.41;94084.44;10661758;27;20047;-78
2021/12/08 08:36:34;;;;;;;2.65;1.33;;;;;;;16.80;47.65;94066.78;10646112;27;20046;-80
2021/12/08 08:41:44;;;;;;;5.03;1.88;;;;;;;16.82;46.57;94044.63;10645592;27;20041;-78
2021/12/08 08:46:47;;;;;;;8.07;1.67;;;;;;;16.84;47.94;94068.63;10645550;27;20023;-74
2021/12/08 08:52:06;;;;;;;3.03;1.42;;;;;;;16.86;46.94;94081.44;10661700;27;20066;-80
2021/12/08 08:57:12;;;;;;;3.60;1.70;;;;;;;16.89;47.69;94080.16;10666346;27;20091;-76
2021/12/08 09:02:19;;;;;;;3.72;1.67;;;;;;;16.90;47.67;94086.97;10659135;27;20391;-76
2021/12/08 09:07:25;;;;;;;5.05;1.80;;;;;;;16.90;47.81;94077.31;10661288;27;20536;-76
2021/12/08 09:12:33;;;;;;;2.38;1.80;;;;;;;16.91;47.69;94065.88;10665463;27;20042;-76
2021/12/08 09:17:50;;;;;;;2.35;1.60;;;;;;;16.93;46.81;94063.81;10666138;27;20049;-80
2021/12/08 09:22:59;;;;;;;4.55;1.80;;;;;;;16.94;47.54;94061.97;10641112;27;20039;-79
2021/12/08 09:28:13;;;;;;;2.85;1.88;;;;;;;16.95;47.24;94059.13;10665533;27;20043;-77
2021/12/08 09:33:23;;;;;;;3.13;1.83;;;;;;;16.95;47.75;94074.75;10671965;27;20033;-75
2021/12/08 09:38:28;;;;;;;5.35;2.40;;;;;;;16.95;47.83;94069.53;10685323;27;20516;-75
2021/12/08 09:43:37;;;;;;;5.95;1.98;;;;;;;16.97;47.19;94071.91;10649001;27;20070;-81
2021/12/08 09:48:42;;;;;;;6.15;2.10;;;;;;;16.97;48.23;94056.28;10663199;27;20115;-82
2021/12/08 09:53:45;;;;;;;5.43;1.70;;;;;;;16.97;47.97;94043.25;10643051;27;20384;-83
2021/12/08 09:58:53;;;;;;;4.15;2.10;;;;;;;16.98;47.85;94040.38;10659954;27;20064;-84
2021/12/08 10:03:56;;;;;;;4.80;2.00;;;;;;;16.99;47.67;94026.34;10644038;27;20043;-83
2021/12/08 10:08:59;;;;;;;4.18;1.90;;;;;;;17.00;47.38;94009.66;10645027;27;20043;-83
2021/12/08 10:14:02;;;;;;;4.03;1.83;;;;;;;17.00;47.42;94004.44;10645480;27;20043;-83
2021/12/08 10:19:05;;;;;;;3.17;1.67;;;;;;;17.02;47.13;93980.72;10644019;27;20046;-82
2021/12/08 10:24:18;;;;;;;3.30;2.08;;;;;;;17.02;46.96;93983.34;10658874;27;20034;-83
2021/12/08 10:29:28;;;;;;;2.30;1.67;;;;;;;17.02;47.17;93981.53;10664737;27;20050;-83
2021/12/08 10:34:42;;;;;;;2.53;1.92;;;;;;;17.02;46.65;93963.28;10646977;27;20096;-81
2021/12/08 10:39:47;;;;;;;2.08;1.60;;;;;;;17.03;47.14;93982.31;10646535;27;20428;-84
2021/12/08 10:45:03;;;;;;;2.45;1.40;;;;;;;17.02;46.94;93978.13;10671826;27;20043;-84
2021/12/08 10:55:18;;;;;;;1.60;1.50;;;;;;;17.04;46.42;93978.69;10654892;27;20046;-82
2021/12/08 11:00:22;;;;;;;1.80;1.50;;;;;;;17.03;46.77;93964.06;10654739;27;20042;-82
2021/12/08 11:05:23;;;;;;;3.50;1.50;;;;;;;17.02;47.01;93957.28;10654637;27;20057;-82
2021/12/08 11:10:26;;;;;;;1.67;1.40;;;;;;;17.00;46.90;93972.38;10672989;27;20038;-84
2021/12/08 11:15:30;;;;;;;1.55;1.45;;;;;;;17.01;47.04;93969.53;10654202;27;20534;-82
2021/12/08 11:20:33;;;;;;;2.72;1.67;;;;;;;17.00;46.96;93972.38;10672292;27;20038;-81
2021/12/08 11:25:41;;;;;;;1.60;1.40;;;;;;;16.99;46.65;93953.34;10671732;27;20042;-83
2021/12/08 11:30:43;;;;;;;2.72;1.70;;;;;;;16.99;46.61;93929.91;10671927;27;20154;-81
2021/12/08 11:35:46;;;;;;;1.33;1.23;;;;;;;16.98;46.94;93924.94;10672001;27;20426;-81
2021/12/08 11:40:47;;;;;;;1.33;1.23;;;;;;;16.98;46.51;93919.72;10671628;27;20070;-84
2021/12/08 11:45:49;;;;;;;1.30;1.20;;;;;;;16.97;46.91;93931.16;10652900;27;20042;-82
2021/12/08 11:51:11;;;;;;;2.60;1.60;;;;;;;16.96;46.16;93924.41;10652755;27;20042;-85
2021/12/08 11:56:30;;;;;;;1.77;1.45;;;;;;;16.96;46.39;93929.63;10670769;27;20039;-81
2021/12/08 12:01:32;;;;;;;1.50;1.30;;;;;;;16.93;46.78;93920.47;10670855;27;20043;-82
2021/12/08 12:06:35;;;;;;;1.90;1.40;;;;;;;16.93;46.62;93898.84;10652448;27;20043;-85
2021/12/08 12:11:37;;;;;;;1.50;1.40;;;;;;;16.92;46.70;93913.66;10651954;27;20042;-80
2021/12/08 12:16:39;;;;;;;1.73;1.38;;;;;;;16.92;46.86;93920.72;10670839;27;20392;-82
2021/12/08 12:22:04;;;;;;;2.00;1.60;;;;;;;16.90;46.35;93915.75;10669702;27;20457;-78
2021/12/08 12:27:21;;;;;;;5.13;1.77;;;;;;;16.90;46.57;93894.13;10668443;27;20077;-78
2021/12/08 12:32:28;;;;;;;3.05;1.70;;;;;;;16.89;47.24;93914.16;10668372;27;20116;-81
2021/12/08 12:37:33;;;;;;;6.72;1.85;;;;;;;16.89;47.14;93897.75;10660331;27;20046;-79
2021/12/08 12:42:54;;;;;;;5.30;1.90;;;;;;;16.87;46.66;93926.66;10662963;27;20045;-76
2021/12/08 12:48:26;;;;;;;4.72;2.00;;;;;;;16.88;46.84;93924.84;10665439;27;20069;-78
2021/12/08 12:53:38;;;;;;;5.40;2.55;;;;;;;16.86;47.42;93889.41;10666011;27;20042;-79
2021/12/08 12:58:45;;;;;;;10.90;2.13;;;;;;;16.88;47.59;93857.09;10667246;27;20039;-79
2021/12/08 13:03:50;;;;;;;5.82;2.30;;;;;;;16.86;47.80;93834.69;10666614;27;20039;-78
2021/12/08 13:08:51;;;;;;;6.07;2.00;;;;;;;16.88;47.67;93834.44;10665411;27;20381;-83
2021/12/08 13:13:54;;;;;;;4.68;2.67;;;;;;;16.88;47.59;93860.50;10630801;27;20042;-84
2021/12/08 13:18:59;;;;;;;3.33;1.95;;;;;;;16.88;47.67;93842.25;10647650;27;20039;-84
2021/12/08 13:24:01;;;;;;;6.05;1.90;;;;;;;16.88;47.31;93846.66;10645585;27;20033;-85
2021/12/08 13:29:21;;;;;;;3.88;1.90;;;;;;;16.88;46.66;93852.69;10646507;27;20073;-83
2021/12/08 13:34:24;;;;;;;4.43;1.92;;;;;;;16.89;47.75;93843.03;10664614;27;20038;-85
2021/12/08 13:39:29;;;;;;;5.10;1.90;;;;;;;16.88;47.67;93821.41;10645674;27;20046;-85
2021/12/08 13:44:55;;;;;;;1.85;1.48;;;;;;;16.86;47.31;93826.06;10649254;27;20043;-84
2021/12/08 13:50:02;;;;;;;4.95;1.52;;;;;;;16.86;46.97;93852.94;10645894;27;20050;-84
2021/12/08 13:55:07;;;;;;;;;;;;;;;16.85;46.87;93864.38;10628408;27;20042;-75
2021/12/08 14:00:17;;;;;;;5.55;2.13;;;;;;;16.85;46.77;93840.94;10664054;27;19923;-82
2021/12/08 14:05:28;;;;;;;5.00;1.85;;;;;;;16.83;46.95;93840.38;10662078;27;20564;-82
2021/12/08 14:10:42;;;;;;;3.20;1.80;;;;;;;16.81;47.27;93829.41;10656287;27;20541;-84
2021/12/08 14:15:50;;;;;;;2.75;2.08;;;;;;;16.81;47.18;93810.38;10663572;27;20035;-85
2021/12/08 14:21:15;;;;;;;2.60;2.10;;;;;;;16.81;47.33;93794.75;10645268;27;20053;-84
2021/12/08 14:26:23;;;;;;;4.35;2.15;;;;;;;16.80;46.74;93811.44;10663585;27;20125;-84
2021/12/08 14:31:34;;;;;;;3.13;2.45;;;;;;;16.79;46.56;93833.31;10663239;27;20476;-80
2021/12/08 14:36:37;;;;;;;2.40;2.10;;;;;;;16.78;47.44;93848.16;10657132;27;20047;-82
2021/12/08 14:41:41;;;;;;;2.92;1.92;;;;;;;16.76;47.37;93860.63;10676262;27;20512;-76
2021/12/08 14:46:46;;;;;;;6.85;2.17;;;;;;;16.75;47.13;93793.94;10677743;27;20484;-82
2021/12/08 14:51:55;;;;;;;3.25;2.10;;;;;;;16.74;46.79;93807.22;10663069;27;20457;-80
2021/12/08 14:57:00;;;;;;;3.00;2.70;;;;;;;16.72;47.19;93809.28;10622688;27;20866;-81
2021/12/08 15:02:02;;;;;;;3.15;2.42;;;;;;;16.71;46.95;93808.50;10661301;27;20030;-76
2021/12/08 15:07:06;;;;;;;5.43;2.10;;;;;;;16.68;47.05;93838.41;10660839;27;20042;-85
2021/12/08 15:12:19;;;;;;;4.20;2.58;;;;;;;16.71;45.46;93831.94;10641275;27;20446;-79
2021/12/08 15:17:32;;;;;;;5.43;3.42;;;;;;;16.82;46.19;93844.00;10661175;27;20469;-79
2021/12/08 15:22:40;;;;;;;9.90;3.15;;;;;;;16.93;46.55;93836.28;10639302;27;20035;-77
2021/12/08 15:27:45;;;;;;;13.23;3.33;;;;;;;17.03;46.35;93818.09;10637024;27;20051;-84
2021/12/08 15:33:07;;;;;;;14.57;3.08;;;;;;;17.12;45.16;93823.63;10669425;27;20035;-85
2021/12/08 15:38:11;;;;;;;4.57;2.67;;;;;;;17.21;46.02;93811.66;10669395;27;20488;-83
2021/12/08 15:43:15;;;;;;;9.70;2.90;;;;;;;17.29;45.93;93828.66;10651993;27;20158;-84
2021/12/08 15:48:25;;;;;;;4.10;2.30;;;;;;;17.37;44.27;93794.28;10669551;27;20099;-83
2021/12/08 15:53:30;;;;;;;2.67;2.10;;;;;;;17.42;44.42;93823.00;10668682;27;20046;-84
2021/12/08 15:58:35;;;;;;;3.20;2.10;;;;;;;17.48;44.60;93819.38;10669220;27;20043;-85
2021/12/08 16:03:42;;;;;;;5.75;2.05;;;;;;;17.53;44.22;93857.72;10644921;27;20050;-83
2021/12/08 16:08:45;;;;;;;7.50;2.00;;;;;;;17.57;44.24;93872.63;10623382;27;20051;-83
2021/12/08 16:13:47;;;;;;;2.97;2.00;;;;;;;17.60;43.94;93871.31;10646452;27;20049;-85
2021/12/08 16:18:48;;;;;;;2.53;1.83;;;;;;;17.62;43.98;93874.47;10620098;27;20408;-86
2021/12/08 16:23:50;;;;;;;1.75;1.58;;;;;;;17.65;42.65;93875.78;10671682;27;20035;-84
2021/12/08 16:28:54;;;;;;;5.40;2.38;;;;;;;17.69;44.75;93884.66;10667730;27;20412;-84
2021/12/08 16:33:56;;;;;;;5.38;2.10;;;;;;;17.70;44.80;93896.69;10649779;27;20042;-86
2021/12/08 16:38:59;;;;;;;4.93;1.83;;;;;;;17.72;44.50;93884.16;10621230;27;20043;-84
2021/12/08 16:44:00;;;;;;;2.50;2.08;;;;;;;17.72;44.44;93894.59;10666964;27;20043;-85
2021/12/08 16:49:02;;;;;;;1.88;1.75;;;;;;;17.72;43.83;93890.19;10666763;27;20053;-84
2021/12/08 16:54:04;;;;;;;3.22;2.30;;;;;;;17.73;43.98;93883.91;10631371;27;20053;-85
2021/12/08 16:59:05;;;;;;;2.95;2.00;;;;;;;17.73;44.89;93896.94;10641356;27;20450;-83
2021/12/08 17:04:17;;;;;;;3.10;2.13;;;;;;;17.72;44.50;93895.41;10649285;27;20045;-84
2021/12/08 17:09:20;;;;;;;3.33;2.17;;;;;;;17.72;43.98;93884.16;10667361;27;20054;-87
2021/12/08 17:14:21;;;;;;;2.38;2.10;;;;;;;17.73;44.51;93885.72;10667402;27;20488;-87
2021/12/08 17:19:23;;;;;;;2.35;2.15;;;;;;;17.72;44.38;93865.88;10630777;27;20046;-84
2021/12/08 17:24:26;;;;;;;2.17;1.98;;;;;;;17.71;44.42;93867.72;10639336;27;20042;-87
2021/12/08 17:29:28;;;;;;;3.50;2.00;;;;;;;17.69;44.33;93861.97;10645896;27;20053;-87
2021/12/08 17:34:30;;;;;;;7.63;2.88;;;;;;;17.69;44.68;93863.78;10647559;27;20118;-78
2021/12/08 17:39:32;;;;;;;13.93;3.58;;;;;;;17.69;45.07;93874.22;10647716;27;20480;-79
2021/12/08 17:44:34;;;;;;;13.38;4.15;;;;;;;17.67;45.19;93865.88;10666629;27;20060;-77
2021/12/08 17:49:36;;;;;;;13.88;4.60;;;;;;;17.66;45.10;93853.88;10665994;27;20050;-77
2021/12/08 17:54:38;;;;;;;19.17;4.90;;;;;;;17.65;45.50;93858.31;10665424;27;20149;-80
2021/12/08 17:59:40;;;;;;;27.70;6.22;;;;;;;17.65;45.85;93862.75;10665568;27;20042;-78
2021/12/08 18:04:42;;;;;;;21.35;4.85;;;;;;;17.64;45.88;93866.38;10665609;27;20437;-79
2021/12/08 18:09:43;;;;;;;23.92;5.35;;;;;;;17.62;45.90;93864.03;10665426;27;20050;-78
2021/12/08 18:14:47;;;;;;;10.93;4.80;;;;;;;17.61;45.85;93880.75;10665390;27;20043;-78
2021/12/08 18:19:49;;;;;;;16.27;4.50;;;;;;;17.59;46.16;93875.78;10665267;27;20384;-79
2021/12/08 18:24:51;;;;;;;15.73;4.85;;;;;;;17.57;46.11;93883.03;10665315;27;20035;-78
2021/12/08 18:29:52;;;;;;;13.10;4.55;;;;;;;17.55;46.33;93890.34;10664736;27;20050;-76
2021/12/08 18:34:58;;;;;;;14.85;5.43;;;;;;;17.55;46.38;93913.06;10665153;27;20051;-78
2021/12/08 18:40:00;;;;;;;13.35;4.97;;;;;;;17.52;46.42;93932.59;10665060;27;20035;-83
2021/12/08 18:45:02;;;;;;;11.45;4.50;;;;;;;17.51;46.35;93957.09;10646291;27;20133;-82
2021/12/08 18:50:05;;;;;;;10.20;4.68;;;;;;;17.49;46.56;93961.78;10664490;27;20103;-78
2021/12/08 18:55:11;;;;;;;11.48;4.90;;;;;;;17.48;46.40;93949.00;10646033;27;20050;-79
2021/12/08 19:00:17;;;;;;;8.48;4.53;;;;;;;17.46;46.35;93925.00;10664496;27;20433;-81
2021/12/08 19:05:20;;;;;;;13.32;5.20;;;;;;;17.44;46.65;93934.91;10668215;27;20430;-80
2021/12/08 19:10:23;;;;;;;11.07;4.40;;;;;;;17.41;46.42;93921.31;10654209;27;20050;-78
2021/12/08 19:15:28;;;;;;;8.32;4.18;;;;;;;17.40;46.32;93922.38;10672382;27;20042;-77
2021/12/08 19:20:31;;;;;;;9.48;4.00;;;;;;;17.39;46.00;93920.00;10672326;27;20091;-81
2021/12/08 19:25:38;;;;;;;8.20;4.30;;;;;;;17.36;46.31;93923.88;10672279;27;20484;-80
2021/12/08 19:30:41;;;;;;;8.98;4.40;;;;;;;17.35;46.32;93924.91;10671739;27;20051;-78
2021/12/08 19:35:44;;;;;;;9.85;4.50;;;;;;;17.32;46.17;93933.28;10671807;27;20054;-79
2021/12/08 19:40:49;;;;;;;10.77;4.70;;;;;;;17.31;46.35;93923.09;10652901;27;20050;-77
2021/12/08 19:45:52;;;;;;;8.05;4.40;;;;;;;17.29;46.52;93928.56;10652895;27;20054;-78
2021/12/08 19:50:54;;;;;;;9.25;4.35;;;;;;;17.26;46.34;93936.88;10671203;27;20050;-80
2021/12/08 19:55:56;;;;;;;8.55;4.55;;;;;;;17.25;46.31;93943.13;10652636;27;20500;-77
2021/12/08 20:00:58;;;;;;;7.70;4.38;;;;;;;17.22;46.37;93941.78;10671290;27;20437;-79
2021/12/08 20:06:00;;;;;;;9.45;4.07;;;;;;;17.21;46.45;93939.44;10671184;27;20434;-77
2021/12/08 20:11:02;;;;;;;9.07;4.22;;;;;;;17.19;46.74;93951.94;10670931;27;20039;-78
2021/12/08 20:16:05;;;;;;;6.43;4.18;;;;;;;17.17;46.48;93948.81;10670457;27;20043;-79
2021/12/08 20:21:07;;;;;;;7.50;4.57;;;;;;;17.15;46.51;93943.84;10670644;27;20041;-76
2021/12/08 20:26:11;;;;;;;6.97;4.38;;;;;;;17.13;46.19;93955.53;10670249;27;20039;-76
2021/12/08 20:31:22;;;;;;;8.00;4.03;;;;;;;17.12;46.33;93956.59;10669907;27;20047;-76
2021/12/08 20:36:26;;;;;;;5.63;3.92;;;;;;;17.10;46.33;93963.84;10669997;27;20039;-82
2021/12/08 20:41:29;;;;;;;7.55;4.13;;;;;;;17.08;46.52;93958.88;10651094;27;20050;-76
2021/12/08 20:46:32;;;;;;;7.97;4.40;;;;;;;17.07;46.28;93966.94;10651323;27;20117;-74
2021/12/08 20:51:34;;;;;;;8.40;4.63;;;;;;;17.04;46.33;93961.22;10669104;27;20499;-78
2021/12/08 20:56:38;;;;;;;7.30;4.35;;;;;;;17.02;46.32;93952.88;10669076;27;20062;-74
2021/12/08 21:01:52;;;;;;;6.68;4.10;;;;;;;17.00;46.28;93967.94;10668818;27;20169;-75
2021/12/08 21:06:56;;;;;;;7.28;4.50;;;;;;;16.98;46.18;93975.22;10668584;27;20388;-77
2021/12/08 21:11:58;;;;;;;5.13;4.07;;;;;;;16.96;46.32;93973.94;10668168;27;20503;-79
2021/12/08 21:16:59;;;;;;;5.10;3.92;;;;;;;16.95;46.12;93980.94;10668471;27;20113;-76
2021/12/08 21:22:02;;;;;;;6.13;4.38;;;;;;;16.92;46.62;93975.44;10649507;27;20683;-77
2021/12/08 21:27:05;;;;;;;5.80;4.13;;;;;;;16.91;46.26;93979.88;10666984;27;20034;-76
2021/12/08 21:32:07;;;;;;;5.40;3.97;;;;;;;16.89;46.07;93971.50;10667327;27;20055;-75
2021/12/08 21:37:09;;;;;;;6.13;4.30;;;;;;;16.87;46.15;93989.22;10667448;27;20072;-76
2021/12/08 21:42:11;;;;;;;5.43;4.28;;;;;;;16.84;46.26;93987.84;10667234;27;20033;-76
2021/12/08 21:47:12;;;;;;;4.90;3.72;;;;;;;16.83;46.40;93988.09;10667276;27;20038;-75
2021/12/08 21:52:14;;;;;;;6.30;4.20;;;;;;;16.82;46.51;93986.53;10666908;27;20038;-75
2021/12/08 21:57:17;;;;;;;5.88;4.47;;;;;;;16.79;46.36;93972.16;10667006;27;20039;-75
2021/12/08 22:02:18;;;;;;;5.45;4.13;;;;;;;16.78;46.30;93969.81;10648193;27;20038;-76
2021/12/08 22:07:20;;;;;;;6.32;4.32;;;;;;;16.76;46.47;93985.69;10666500;27;20058;-75
2021/12/08 22:12:21;;;;;;;5.75;4.03;;;;;;;16.75;46.40;93978.91;10666133;27;20046;-79
2021/12/08 22:17:23;;;;;;;7.15;4.30;;;;;;;16.73;46.42;93964.56;10647753;27;20075;-77
2021/12/08 22:22:28;;;;;;;5.55;4.43;;;;;;;16.72;46.25;93973.41;10665993;27;20196;-75
2021/12/08 22:27:30;;;;;;;5.25;4.30;;;;;;;16.70;46.32;93978.84;10665719;27;20046;-75
2021/12/08 22:32:31;;;;;;;5.68;4.30;;;;;;;16.67;46.41;93969.72;10665541;27;20055;-75
2021/12/08 22:37:34;;;;;;;5.40;4.20;;;;;;;16.66;46.50;93965.53;10666557;27;20050;-75
2021/12/08 22:42:36;;;;;;;5.57;4.18;;;;;;;16.65;46.73;93947.53;10674114;27;20038;-77
2021/12/08 22:47:40;;;;;;;8.00;4.80;;;;;;;16.65;46.75;93947.53;10673281;27;20556;-87
2021/12/08 22:52:42;;;;;;;10.73;4.40;;;;;;;16.64;46.72;93990.28;10674049;27;20479;-83
2021/12/08 22:57:46;;;;;;;9.38;4.72;;;;;;;16.62;47.00;94007.94;10674374;27;20149;-75
2021/12/08 23:02:50;;;;;;;13.23;5.15;;;;;;;16.61;47.14;93993.38;10672819;27;20050;-77
2021/12/08 23:07:55;;;;;;;7.43;4.82;;;;;;;16.61;47.17;93998.56;10669806;27;20046;-79
2021/12/08 23:12:57;;;;;;;7.55;4.93;;;;;;;16.59;47.07;93988.41;10672925;27;20046;-78
2021/12/08 23:17:58;;;;;;;8.85;4.65;;;;;;;16.58;47.05;93988.66;10671580;27;20034;-80
2021/12/08 23:23:00;;;;;;;10.60;4.60;;;;;;;16.56;47.13;93985.47;10671672;27;20043;-78
2021/12/08 23:28:02;;;;;;;6.70;4.70;;;;;;;16.55;46.85;93991.75;10672280;27;20046;-79
2021/12/08 23:33:04;;;;;;;6.07;4.38;;;;;;;16.55;46.88;93994.34;10671639;27;20039;-79
2021/12/08 23:38:16;;;;;;;6.30;4.32;;;;;;;16.53;47.15;93999.78;10652868;27;20042;-78
2021/12/08 23:43:18;;;;;;;5.50;4.55;;;;;;;16.51;47.15;93981.00;10671478;27;20047;-81
2021/12/08 23:48:20;;;;;;;5.63;4.32;;;;;;;16.50;47.03;93987.25;10671259;27;20162;-79
2021/12/08 23:53:22;;;;;;;6.88;4.40;;;;;;;16.48;47.09;93997.91;10669792;27;20031;-79
2021/12/08 23:58:30;;;;;;;6.82;4.75;;;;;;;16.47;47.00;93985.16;10652520;27;20053;-77
